»·PEaware :: RSP225 KPGA-KTEX

RSP225 :: KPGA-KTEX

FLIGHT INFORMATION

Flight Status: Arrived
Operator: Unknown
More flights by this operator :: More flights under this callsign
Pilot: Tomas M. (4063)
Aircraft: CESSNA 550 CITATION 2/S2/BRAVO
(C550)
More flights by this aircraft type
Origin: KPGA Page Mun
United States
Destination: KTEX Telluride Regl
United States
More flights between these airports :: More routes between these airports
Route: DVC ETL
File this flight plan on PilotEdge
Remarks:
Altitude:
(Current/Filed)
27,000ft
Speed:
(Current/Filed)
358kts
Departed: 26-Sep-23 04:01 PM
Arrived: 26-Sep-23 04:42 PM
Distance/Time
Traveled:
180nm/0:41
Distance/Time
To Go:
Arrived

Flight Plot

Page will automatically refresh every two minutes.

Flight plan parsing failed; only flown route is shown


Map Options




Map Legend


Flown Route
Filed Route
Departure Airport
Arrival Airport
Navaid (VOR, NDB)
Fix

Horizontal Profiles

Position Reports

Time Latitude Longitude Heading Altitude Ground
Speed
26-Sep-23 15:55 36.925163 -111.449816 260 4267ft 0kts
26-Sep-23 15:55 36.925163 -111.449816 260 4267ft 0kts
26-Sep-23 15:56 36.925163 -111.449816 260 4267ft 0kts
26-Sep-23 15:57 36.925556 -111.450028 99 4266ft 9kts
26-Sep-23 15:59 36.921801 -111.448223 170 4286ft 9kts
26-Sep-23 16:00 36.921526 -111.447110 353 4288ft 8kts
26-Sep-23 16:00 36.940454 -111.451119 350 4913ft 122kts
26-Sep-23 16:01 36.975417 -111.442935 57 6735ft 179kts
26-Sep-23 16:02 37.001665 -111.366066 68 7939ft 265kts
26-Sep-23 16:03 37.030212 -111.281021 67 10280ft 271kts
26-Sep-23 16:04 37.060237 -111.193669 67 12505ft 271kts
26-Sep-23 16:05 37.090456 -111.105621 66 14707ft 280kts
26-Sep-23 16:06 37.121302 -111.015473 65 16957ft 285kts
26-Sep-23 16:07 37.153096 -110.922349 64 18861ft 293kts
26-Sep-23 16:08 37.185480 -110.827445 64 20595ft 299kts
26-Sep-23 16:09 37.218287 -110.731646 64 22341ft 298kts
26-Sep-23 16:10 37.251342 -110.634853 64 23809ft 307kts
26-Sep-23 16:11 37.285122 -110.535513 64 25408ft 312kts
26-Sep-23 16:12 37.318587 -110.435318 64 27037ft 310kts
26-Sep-23 16:13 37.352042 -110.334151 64 28288ft 317kts
26-Sep-23 16:14 37.385924 -110.230773 64 29419ft 322kts
26-Sep-23 16:15 37.419915 -110.126032 64 30559ft 321kts
26-Sep-23 16:16 37.453115 -110.021904 64 31274ft 334kts
26-Sep-23 16:17 37.491589 -109.910534 64 31262ft 357kts
26-Sep-23 16:18 37.530567 -109.793225 64 31266ft 369kts
26-Sep-23 16:19 37.569990 -109.672679 64 31266ft 374kts
26-Sep-23 16:20 37.609649 -109.550836 64 31266ft 377kts
26-Sep-23 16:21 37.649322 -109.428484 64 31266ft 378kts
26-Sep-23 16:22 37.689058 -109.305432 65 31264ft 378kts
26-Sep-23 16:23 37.728591 -109.182486 65 31263ft 378kts
26-Sep-23 16:24 37.768283 -109.058662 65 30374ft 389kts
26-Sep-23 16:25 37.809789 -108.928881 65 28768ft 406kts
26-Sep-23 16:26 37.855008 -108.801254 54 27032ft 391kts
26-Sep-23 16:27 37.916037 -108.690617 52 25529ft 381kts
26-Sep-23 16:28 37.976475 -108.581709 51 24027ft 378kts
26-Sep-23 16:29 38.035992 -108.475887 52 21955ft 359kts
26-Sep-23 16:30 38.093881 -108.376937 52 19894ft 339kts
26-Sep-23 16:31 38.145456 -108.291703 52 18091ft 284kts
26-Sep-23 16:32 38.130987 -108.217913 176 16893ft 263kts
26-Sep-23 16:33 38.060504 -108.245475 187 16137ft 260kts
26-Sep-23 16:34 38.009818 -108.193325 121 14565ft 251kts
26-Sep-23 16:35 37.988839 -108.113199 104 12660ft 225kts
26-Sep-23 16:36 37.978026 -108.048715 102 11557ft 161kts
26-Sep-23 16:37 37.962265 -107.998309 129 11396ft 150kts
26-Sep-23 16:38 37.936215 -107.956237 129 11128ft 156kts
26-Sep-23 16:39 37.920880 -107.906057 99 10463ft 146kts
26-Sep-23 16:40 37.942789 -107.879354 337 9784ft 117kts
26-Sep-23 16:41 37.953565 -107.907728 128 9012ft 7kts
26-Sep-23 16:42 37.952677 -107.901334 15 9052ft 10kts
26-Sep-23 16:43 37.953865 -107.901251 204 9068ft 0kts
26-Sep-23 16:44 37.953865 -107.901251 204 9068ft 0kts
26-Sep-23 16:45 37.953865 -107.901251 204 9068ft 0kts

Navigation Log

Ident Type
Flight plan parsing failed, navigation log unavailable